WOLFEBORO: From 11/03/2018 15:00 to 11/18/2018 03:00

Date PRECIPITATION INCREMENT [IN] AIR TEMPERATURE [DEGF] RELATIVE HUMIDITY [%] BAROMETRIC PRESSURE [INHG] AVERAGE WIND SPEED [FT/S] MAXIMUM WIND SPEED [FT/S] MINIMUM WIND SPEED [FT/S] AVERAGE WIND DIRECTION [] MAXIMUM WIND DIRECTION [] MINIMUM WIND DIRECTION []
11/17/2018 16:00 0.00 -- -- 29.35 1.00 10.00 0.00 0.0 54.0 0.0
11/17/2018 15:00 0.00 43.0 40.6 29.34 5.25 17.00 0.00 0.0 49.8 0.0
11/17/2018 14:00 0.00 43.0 39.9 29.33 5.00 18.00 0.00 0.0 51.3 0.0
11/17/2018 13:00 0.00 43.0 44.8 29.33 4.50 15.75 0.00 0.0 41.0 0.0
11/17/2018 12:00 0.00 42.0 51.7 29.33 3.50 14.25 0.00 0.3 58.8 0.0
11/17/2018 11:00 0.00 40.0 58.4 29.32 4.25 12.50 0.00 0.0 45.8 0.0
11/17/2018 10:00 0.00 39.0 64.7 29.31 5.50 14.75 0.00 0.5 55.5 0.0
11/17/2018 09:00 0.00 39.0 63.4 29.28 2.25 14.25 0.00 0.5 47.8 0.0
11/17/2018 08:00 0.00 39.0 63.6 29.25 2.00 11.25 0.00 0.5 45.5 0.0
11/17/2018 07:00 0.00 38.0 63.1 29.22 3.75 13.50 0.00 1.0 57.0 0.0
11/17/2018 06:00 0.00 38.0 64.5 29.18 4.75 16.25 0.00 0.3 51.8 0.0
11/17/2018 05:00 0.00 38.0 64.3 29.14 2.25 11.50 0.00 0.5 44.3 0.0
11/17/2018 04:00 0.00 38.0 64.6 29.11 3.25 13.75 0.00 0.0 41.8 0.0
11/17/2018 03:00 0.00 38.0 63.8 29.09 5.75 16.25 0.00 0.8 50.0 0.0
11/17/2018 02:00 0.00 37.0 65.4 29.07 4.50 13.50 0.00 0.3 47.5 0.0
11/17/2018 01:00 0.00 35.0 68.3 29.06 2.50 9.25 0.00 0.0 32.8 0.0
11/17/2018 00:00 0.00 34.0 71.2 29.04 1.50 9.50 0.00 0.0 38.5 0.0
11/16/2018 23:00 0.00 34.0 71.4 29.03 2.75 10.00 0.00 0.3 51.3 0.0
11/16/2018 22:00 0.00 32.0 73.7 29.02 2.75 10.50 0.00 1.0 55.5 0.0
11/16/2018 21:00 0.00 33.0 74.2 29.00 2.75 10.50 0.00 0.5 45.0 0.0
11/16/2018 20:00 0.00 33.0 72.4 29.00 3.00 11.00 0.00 0.5 52.0 0.0
11/16/2018 19:00 0.00 33.0 66.5 28.98 3.25 11.25 0.00 0.3 53.5 0.0
11/16/2018 18:00 0.00 33.0 64.9 28.96 4.00 12.50 0.00 0.8 51.8 0.0
11/16/2018 17:00 0.00 34.0 71.8 28.93 0.75 5.00 0.00 0.3 38.5 0.0
11/16/2018 16:00 0.00 34.0 74.0 28.90 0.00 1.00 0.00 0.0 14.8 0.0
11/16/2018 15:00 0.01 33.0 74.3 28.91 2.25 10.25 0.00 0.0 0.0 0.0
11/16/2018 14:00 0.02 31.0 69.9 28.90 5.25 15.00 0.00 0.0 17.0 0.0
11/16/2018 13:00 0.00 30.0 72.4 28.91 6.50 16.25 0.00 0.0 0.0 0.0
11/16/2018 12:00 0.00 27.0 76.6 28.96 7.75 16.75 0.00 0.0 0.0 0.0
11/16/2018 11:00 0.00 27.0 79.3 28.97 9.00 19.75 0.00 0.0 0.0 0.0
11/16/2018 10:00 0.00 26.0 80.8 29.02 7.00 17.00 0.00 0.0 0.0 0.0
11/16/2018 09:00 0.00 26.0 81.8 29.05 10.25 23.25 0.25 0.0 2.0 0.0
11/16/2018 08:00 0.00 25.0 82.1 29.07 10.75 25.75 0.00 0.0 2.3 0.0
11/16/2018 07:00 0.00 25.0 81.8 29.13 9.75 24.25 0.00 0.0 0.0 0.0
11/16/2018 06:00 0.00 25.0 81.2 29.22 6.25 17.75 0.00 0.0 0.8 0.0
11/16/2018 05:00 0.00 24.0 79.5 29.29 5.00 15.25 0.00 0.0 0.0 0.0
11/16/2018 04:00 0.00 24.0 80.0 29.34 2.75 13.00 0.00 0.0 0.0 0.0
11/16/2018 03:00 0.00 24.0 81.3 29.42 3.50 16.00 0.00 0.0 1.0 0.0
11/16/2018 02:00 0.00 24.0 81.3 29.48 6.00 16.25 0.00 0.0 0.5 0.0
11/16/2018 01:00 0.00 24.0 79.2 29.57 5.25 15.00 0.00 0.0 0.0 0.0
11/16/2018 00:00 0.00 26.0 60.5 29.62 2.25 10.25 0.00 0.0 0.0 0.0
11/15/2018 23:00 0.00 27.0 30.2 29.66 0.50 2.75 0.00 0.0 0.0 0.0
11/15/2018 22:00 0.00 27.0 19.7 29.71 0.00 0.00 0.00 0.0 0.0 0.0
11/15/2018 21:00 0.00 27.0 13.0 29.73 0.00 0.00 0.00 0.0 0.0 0.0
11/15/2018 20:00 0.00 28.0 9.8 29.75 0.00 0.00 0.00 0.0 0.0 0.0
11/15/2018 19:00 0.00 28.0 11.9 29.75 0.00 0.00 0.00 0.0 0.0 0.0
11/15/2018 18:00 0.00 28.0 10.9 29.77 0.00 0.25 0.00 0.0 0.0 0.0
11/15/2018 17:00 0.00 29.0 9.3 29.79 0.00 0.00 0.00 0.0 0.0 0.0
11/15/2018 16:00 0.00 30.0 5.1 29.81 0.00 0.00 0.00 0.5 81.5 0.0
11/15/2018 15:00 0.00 30.0 5.9 29.84 0.00 0.00 0.00 0.5 85.8 0.0
11/15/2018 14:00 0.00 29.0 15.9 29.85 0.00 0.00 0.00 0.0 68.5 0.0
11/15/2018 13:00 0.00 27.0 24.5 29.88 0.00 0.00 0.00 0.8 92.8 0.0
11/15/2018 12:00 0.00 25.0 22.4 29.90 0.00 0.00 0.00 0.8 101.3 0.0
11/15/2018 11:00 0.00 23.0 38.1 29.92 0.00 0.00 0.00 0.5 97.5 0.0
11/15/2018 10:00 0.00 22.0 43.0 29.93 0.00 0.00 0.00 0.0 15.8 0.0
11/15/2018 09:00 0.00 20.0 41.1 29.92 0.00 0.25 0.00 0.0 36.8 0.0
11/15/2018 08:00 0.00 19.0 46.4 29.92 1.00 8.50 0.00 0.0 50.5 0.0
11/15/2018 07:00 0.00 18.0 49.6 29.91 0.50 7.75 0.00 0.0 44.5 0.0
11/15/2018 06:00 0.00 18.0 53.9 29.90 0.25 4.50 0.00 0.3 66.8 0.0
11/15/2018 05:00 0.00 17.0 47.3 29.90 0.00 4.50 0.00 0.0 18.8 0.0
11/15/2018 04:00 0.00 18.0 57.2 29.91 0.75 7.00 0.00 0.3 69.3 0.0
11/15/2018 03:00 0.00 17.0 55.1 29.90 0.00 0.50 0.00 0.0 7.8 0.0
11/15/2018 02:00 0.00 17.0 47.7 29.90 0.00 0.00 0.00 0.0 17.0 0.0
11/15/2018 01:00 0.00 18.0 40.3 29.90 0.50 4.25 0.00 0.0 29.8 0.0
11/15/2018 00:00 0.00 17.0 38.1 29.90 0.25 4.50 0.00 0.0 21.3 0.0
11/14/2018 23:00 0.00 18.0 32.5 29.89 2.50 12.50 0.00 0.0 24.8 0.0
11/14/2018 22:00 0.00 18.0 32.6 29.86 3.00 12.75 0.00 0.3 46.8 0.0
11/14/2018 21:00 0.00 18.0 34.1 29.86 3.25 11.25 0.00 0.0 51.0 0.0
11/14/2018 20:00 0.00 18.0 33.8 29.84 5.00 16.00 0.00 0.0 23.0 0.0
11/14/2018 19:00 0.00 19.0 27.0 29.80 7.25 21.25 0.00 0.0 36.5 0.0
11/14/2018 18:00 0.00 20.0 24.8 29.77 7.25 24.25 0.00 0.0 16.5 0.0
11/14/2018 17:00 0.00 22.0 24.7 29.72 7.75 23.25 0.00 0.0 13.5 0.0
11/14/2018 16:00 0.00 24.0 19.3 29.66 8.75 25.50 0.00 0.0 31.3 0.0
11/14/2018 15:00 0.00 27.0 16.9 29.63 9.25 26.25 0.00 0.0 25.5 0.0
11/14/2018 14:00 0.00 27.0 15.4 29.61 9.50 29.50 0.25 0.0 36.0 0.0
11/14/2018 13:00 0.00 24.0 24.3 29.61 11.50 32.50 0.00 0.0 54.0 0.0
11/14/2018 12:00 0.00 24.0 27.4 29.59 12.50 33.75 0.00 0.0 40.8 0.0
11/14/2018 11:00 0.00 24.0 25.4 29.57 10.75 32.00 0.00 0.0 47.5 0.0
11/14/2018 10:00 0.00 23.0 35.7 29.54 9.75 27.75 0.00 0.0 46.3 0.0
11/14/2018 09:00 0.00 22.0 45.5 29.51 6.75 20.25 0.00 0.0 32.8 0.0
11/14/2018 08:00 0.00 23.0 49.3 29.47 5.25 18.25 0.00 0.0 32.5 0.0
11/14/2018 07:00 0.00 23.0 50.0 29.44 5.00 16.00 0.00 0.0 53.3 0.0
11/14/2018 06:00 0.00 24.0 47.1 29.41 4.00 14.50 0.00 0.0 34.5 0.0
11/14/2018 05:00 0.00 24.0 39.2 29.39 4.50 15.25 0.00 0.0 30.0 0.0
11/14/2018 04:00 0.00 25.0 34.8 29.37 5.75 20.00 0.00 0.0 43.0 0.0
11/14/2018 03:00 0.00 26.0 28.6 29.37 9.25 27.25 0.00 0.0 27.3 0.0
11/14/2018 02:00 0.00 28.0 35.9 29.34 10.00 28.75 0.00 0.0 38.5 0.0
11/14/2018 01:00 0.00 30.0 35.6 29.29 9.75 30.75 0.00 0.0 55.3 0.0
11/14/2018 00:00 0.00 33.0 50.2 29.25 9.50 27.25 0.25 0.0 40.0 0.0
11/13/2018 23:00 0.00 36.0 51.5 29.19 5.50 20.25 0.00 0.0 38.8 0.0
11/13/2018 22:00 0.00 38.0 63.6 29.16 6.50 18.75 0.00 0.0 51.0 0.0
11/13/2018 21:00 0.00 38.0 64.4 29.15 5.50 17.50 0.00 0.0 46.3 0.0
11/13/2018 20:00 0.00 38.0 70.1 29.13 8.00 21.00 0.00 0.0 39.8 0.0
11/13/2018 19:00 0.00 38.0 74.5 29.11 9.75 25.00 0.00 0.0 50.5 0.0
11/13/2018 18:00 0.00 39.0 79.0 29.09 4.25 17.50 0.00 0.0 35.5 0.0
11/13/2018 17:00 0.01 39.0 84.0 29.09 0.00 0.25 0.00 0.0 23.5 0.0
11/13/2018 16:00 0.00 39.0 83.6 29.11 0.00 1.50 0.00 0.0 7.3 0.0
11/13/2018 15:00 0.02 38.0 83.8 29.16 0.00 0.75 0.00 0.0 0.0 0.0
11/13/2018 14:00 0.02 38.0 84.4 29.22 0.25 2.50 0.00 0.0 0.0 0.0
11/13/2018 13:00 0.10 37.0 84.4 29.26 1.25 11.25 0.00 0.0 0.0 0.0
11/13/2018 12:00 0.12 37.0 84.8 29.31 3.50 12.00 0.00 0.0 0.0 0.0
11/13/2018 11:00 0.19 36.0 84.7 29.35 5.25 14.75 0.00 0.0 0.0 0.0
11/13/2018 10:00 0.16 37.0 85.0 29.40 4.50 11.75 0.00 0.0 0.0 0.0
11/13/2018 09:00 0.13 37.0 85.0 29.45 3.75 10.50 0.00 0.0 0.0 0.0
11/13/2018 08:00 0.09 36.0 85.1 29.50 1.00 7.00 0.00 0.0 0.0 0.0
11/13/2018 07:00 0.06 35.0 84.5 29.53 0.00 5.25 0.00 0.0 0.0 0.0
11/13/2018 06:00 0.08 36.0 83.7 29.58 0.00 3.00 0.00 0.0 0.0 0.0
11/13/2018 05:00 0.09 35.0 81.7 29.61 0.00 0.75 0.00 0.0 0.0 0.0
11/13/2018 04:00 0.02 36.0 72.8 29.62 0.75 5.75 0.00 0.0 0.0 0.0
11/13/2018 03:00 0.00 37.0 63.1 29.65 0.00 1.00 0.00 0.0 0.0 0.0
11/13/2018 02:00 0.00 37.0 62.9 29.67 0.00 0.00 0.00 0.0 0.0 0.0
11/13/2018 01:00 0.00 36.0 65.6 29.69 0.00 0.00 0.00 0.0 0.0 0.0
11/13/2018 00:00 0.00 36.0 69.5 29.71 0.00 0.00 0.00 0.0 0.0 0.0
11/12/2018 23:00 0.00 35.0 69.4 29.71 0.00 0.00 0.00 0.0 0.0 0.0
11/12/2018 22:00 0.00 35.0 70.3 29.70 0.00 0.00 0.00 0.0 0.0 0.0
11/12/2018 21:00 0.00 34.0 70.9 29.70 0.00 0.00 0.00 0.0 0.0 0.0
11/12/2018 20:00 0.00 34.0 67.8 29.72 0.00 0.25 0.00 0.0 0.0 0.0
11/12/2018 19:00 0.00 35.0 52.9 29.73 0.00 0.00 0.00 0.0 0.0 0.0
11/12/2018 18:00 0.00 37.0 49.9 29.72 0.00 0.00 0.00 0.0 0.0 0.0
11/12/2018 17:00 0.00 42.0 34.0 29.70 0.00 0.00 0.00 0.0 7.5 0.0
11/12/2018 16:00 0.00 45.0 19.8 29.69 0.00 0.00 0.00 0.0 41.8 0.0
11/12/2018 15:00 0.00 48.0 15.2 29.69 0.00 0.00 0.00 0.3 66.5 0.0
11/12/2018 14:00 0.00 44.0 21.1 29.70 0.00 0.00 0.00 0.3 75.3 0.0
11/12/2018 13:00 0.00 39.0 32.0 29.72 0.00 0.25 0.00 0.0 59.5 0.0
11/12/2018 12:00 0.00 37.0 34.5 29.74 0.25 2.50 0.00 0.3 53.3 0.0
11/12/2018 11:00 0.00 36.0 40.9 29.74 0.50 7.00 0.00 0.3 44.5 0.0
11/12/2018 10:00 0.00 33.0 42.3 29.74 0.00 0.00 0.00 0.0 8.5 0.0
11/12/2018 09:00 0.00 30.0 51.6 29.74 0.00 0.00 0.00 0.0 0.0 0.0
11/12/2018 08:00 0.00 28.0 56.8 29.72 0.00 0.00 0.00 0.0 0.0 0.0
11/12/2018 07:00 0.00 28.0 53.3 29.71 0.00 0.00 0.00 0.0 8.3 0.0
11/12/2018 06:00 0.00 28.0 46.6 29.70 0.00 1.25 0.00 0.3 55.5 0.0
11/12/2018 05:00 0.00 30.0 40.6 29.69 0.50 3.75 0.00 0.5 52.0 0.0
11/12/2018 04:00 0.00 30.0 41.5 29.69 0.50 5.50 0.00 0.3 61.0 0.0
11/12/2018 03:00 0.00 31.0 34.5 29.68 0.75 9.25 0.00 0.0 38.5 0.0
11/12/2018 02:00 0.00 31.0 33.3 29.67 0.25 6.50 0.00 0.0 43.5 0.0
11/12/2018 01:00 0.00 31.0 24.9 29.66 1.50 11.25 0.00 0.3 54.3 0.0
11/12/2018 00:00 0.00 32.0 19.5 29.65 3.50 13.50 0.00 0.0 48.3 0.0
11/11/2018 23:00 0.00 32.0 18.2 29.64 4.00 16.75 0.00 0.0 41.3 0.0
11/11/2018 22:00 0.00 33.0 25.3 29.62 1.75 13.25 0.00 0.0 65.0 0.0
11/11/2018 21:00 0.00 32.0 21.6 29.61 0.50 6.50 0.00 0.3 52.0 0.0
11/11/2018 20:00 0.00 32.0 16.4 29.60 1.00 8.25 0.00 0.0 36.3 0.0
11/11/2018 19:00 0.00 33.0 14.8 29.59 1.75 10.25 0.00 0.0 52.3 0.0
11/11/2018 18:00 0.00 34.0 12.2 29.58 5.25 18.00 0.00 0.0 30.8 0.0
11/11/2018 17:00 0.00 35.0 7.7 29.57 7.25 21.50 0.00 0.0 45.8 0.0
11/11/2018 16:00 0.00 37.0 9.0 29.54 6.75 19.00 0.00 0.0 45.5 0.0
11/11/2018 15:00 0.00 40.0 11.0 29.55 6.50 18.25 0.00 0.0 52.8 0.0
11/11/2018 14:00 0.00 39.0 9.8 29.55 6.25 17.25 0.00 0.0 58.5 0.0
11/11/2018 13:00 0.00 34.0 17.1 29.55 7.25 19.00 0.00 0.0 54.3 0.0
11/11/2018 12:00 0.00 33.0 22.7 29.57 7.75 22.00 0.00 0.0 40.3 0.0
11/11/2018 11:00 0.00 31.0 24.7 29.56 7.00 20.75 0.00 0.0 54.8 0.0
11/11/2018 10:00 0.00 32.0 25.5 29.55 7.00 22.00 0.00 0.0 36.5 0.0
11/11/2018 09:00 0.00 30.0 28.4 29.53 7.75 24.00 0.00 0.0 43.8 0.0
11/11/2018 08:00 0.00 30.0 25.6 29.50 7.00 23.25 0.00 0.0 38.5 0.0
11/11/2018 07:00 0.00 30.0 26.1 29.48 6.75 22.00 0.00 0.0 44.5 0.0
11/11/2018 06:00 0.00 31.0 29.0 29.46 7.00 26.50 0.00 0.0 55.3 0.0
11/11/2018 05:00 0.00 31.0 22.6 29.43 8.50 27.00 0.00 0.0 41.3 0.0
11/11/2018 04:00 0.00 32.0 26.4 29.41 8.25 26.75 0.00 0.0 32.3 0.0
11/11/2018 03:00 0.00 32.0 26.6 29.37 10.50 31.25 0.00 0.0 47.0 0.0
11/11/2018 02:00 0.00 33.0 22.9 29.33 8.25 23.50 0.25 0.0 38.8 0.0
11/11/2018 01:00 0.00 34.0 44.6 29.30 7.75 22.75 0.50 0.0 50.0 0.0
11/11/2018 00:00 0.00 34.0 48.6 29.27 8.50 23.00 0.00 0.0 56.3 0.0
11/10/2018 23:00 0.00 34.0 46.4 29.25 10.00 24.25 0.25 0.0 51.3 0.0
11/10/2018 22:00 0.00 35.0 38.1 29.24 12.50 29.50 1.00 0.3 62.3 0.0
11/10/2018 21:00 0.00 35.0 32.5 29.22 10.75 26.75 0.50 0.5 54.0 0.0
11/10/2018 20:00 0.00 35.0 25.3 29.21 10.00 27.50 0.25 0.3 58.3 0.0
11/10/2018 19:00 0.00 36.0 20.8 29.20 10.75 26.75 0.75 0.0 64.5 0.0
11/10/2018 18:00 0.03 36.0 19.1 29.17 12.25 31.00 0.00 0.0 54.8 0.0
11/10/2018 17:00 0.00 38.0 15.6 29.13 13.50 34.75 0.25 0.0 69.0 0.0
11/10/2018 16:00 0.00 40.0 23.7 29.09 13.25 32.00 0.50 0.3 56.5 0.0
11/10/2018 15:00 0.00 43.0 23.9 29.07 10.75 27.75 0.00 0.0 52.5 0.0
11/10/2018 14:00 0.00 40.0 60.9 29.04 7.50 22.25 0.00 0.0 37.5 0.0
11/10/2018 13:00 0.01 41.0 69.5 29.02 4.50 15.00 0.00 0.0 21.8 0.0
11/10/2018 12:00 0.00 41.0 81.8 29.02 4.00 12.50 0.00 0.0 16.3 0.0
11/10/2018 11:00 0.03 40.0 84.1 29.04 2.50 8.25 0.00 0.0 16.5 0.0
11/10/2018 10:00 0.01 39.0 84.1 29.06 3.00 10.75 0.00 0.3 20.3 0.0
11/10/2018 09:00 0.01 38.0 83.4 29.07 0.25 3.00 0.00 0.3 11.5 0.0
11/10/2018 08:00 0.01 37.0 83.4 29.07 2.00 8.50 0.00 0.0 0.0 0.0
11/10/2018 07:00 0.00 36.0 83.6 29.10 2.50 10.25 0.00 0.0 0.0 0.0
11/10/2018 06:00 0.01 36.0 84.3 29.11 4.50 13.75 0.00 0.0 0.0 0.0
11/10/2018 05:00 0.01 36.0 84.2 29.14 5.00 15.50 0.00 0.0 0.0 0.0
11/10/2018 04:00 0.03 36.0 84.4 29.17 6.00 19.50 0.00 0.0 0.0 0.0
11/10/2018 03:00 0.05 36.0 84.4 29.22 6.50 18.50 0.00 0.0 7.8 0.0
11/10/2018 02:00 0.03 37.0 84.5 29.27 4.25 17.25 0.00 0.0 0.0 0.0
11/10/2018 01:00 0.09 38.0 84.2 29.34 4.25 15.00 0.00 0.0 0.0 0.0
11/10/2018 00:00 0.10 39.0 83.9 29.39 4.50 14.50 0.00 0.0 6.8 0.0
11/09/2018 23:00 0.09 39.0 82.9 29.43 5.00 17.00 0.00 0.0 0.0 0.0
11/09/2018 22:00 0.16 39.0 81.9 29.50 4.75 15.25 0.00 0.0 0.0 0.0
11/09/2018 21:00 0.11 39.0 80.3 29.57 1.50 11.00 0.00 0.0 0.0 0.0
11/09/2018 20:00 0.00 41.0 66.1 29.59 1.00 8.25 0.00 0.0 0.0 0.0
11/09/2018 19:00 0.00 42.0 57.0 29.61 1.75 10.25 0.00 0.0 0.0 0.0
11/09/2018 18:00 0.00 42.0 56.7 29.60 2.75 11.50 0.00 0.0 0.0 0.0
11/09/2018 17:00 0.00 43.0 52.6 29.63 1.00 8.75 0.00 0.0 0.0 0.0
11/09/2018 16:00 0.00 43.0 47.7 29.66 0.00 2.25 0.00 0.0 0.0 0.0
11/09/2018 15:00 0.00 45.0 34.5 29.67 0.00 1.25 0.00 0.0 0.0 0.0
11/09/2018 14:00 0.00 45.0 26.8 29.65 1.00 6.50 0.00 0.0 0.0 0.0
11/09/2018 13:00 0.00 45.0 30.1 29.70 0.50 5.75 0.00 0.0 0.0 0.0
11/09/2018 12:00 0.00 44.0 37.5 29.71 2.75 10.50 0.00 0.0 0.0 0.0
11/09/2018 11:00 0.00 43.0 43.9 29.71 0.50 4.25 0.00 0.0 0.0 0.0
11/09/2018 10:00 0.00 38.0 70.0 29.71 0.00 0.00 0.00 0.0 0.0 0.0
11/09/2018 09:00 0.00 34.0 81.4 29.73 0.00 0.00 0.00 0.0 0.0 0.0
11/09/2018 08:00 0.00 32.0 81.0 29.72 0.00 0.00 0.00 0.0 0.0 0.0
11/09/2018 07:00 0.00 32.0 80.8 29.72 0.00 0.00 0.00 0.0 0.0 0.0
11/09/2018 06:00 0.00 32.0 80.1 29.70 0.00 0.00 0.00 0.0 0.0 0.0
11/09/2018 05:00 0.00 33.0 79.2 29.68 0.00 0.00 0.00 0.0 0.0 0.0
11/09/2018 04:00 0.00 34.0 73.6 29.68 0.00 0.00 0.00 0.0 0.0 0.0
11/09/2018 03:00 0.00 36.0 69.8 29.67 0.00 0.00 0.00 0.0 10.5 0.0
11/09/2018 02:00 0.00 37.0 69.1 29.66 0.00 0.00 0.00 2.5 63.8 0.0
11/09/2018 01:00 0.00 39.0 64.8 29.66 0.00 0.00 0.00 3.3 81.8 0.0
11/09/2018 00:00 0.00 38.0 68.2 29.64 0.00 0.25 0.00 0.0 10.0 0.0
11/08/2018 23:00 0.00 39.0 66.0 29.63 0.00 0.00 0.00 0.0 13.0 0.0
11/08/2018 22:00 0.00 42.0 54.1 29.61 0.00 3.75 0.00 0.8 85.0 0.0
11/08/2018 21:00 0.00 43.0 46.8 29.60 1.00 10.75 0.00 0.3 55.8 0.0
11/08/2018 20:00 0.00 43.0 47.9 29.59 0.00 4.25 0.00 0.0 48.8 0.0
11/08/2018 19:00 0.00 44.0 43.3 29.57 1.25 8.50 0.00 0.5 77.8 0.0
11/08/2018 18:00 0.00 45.0 33.2 29.54 2.50 13.50 0.00 0.3 54.8 0.0
11/08/2018 17:00 0.00 48.0 27.2 29.53 4.50 18.50 0.00 0.0 54.5 0.0
11/08/2018 16:00 0.00 49.0 23.9 29.52 4.50 15.25 0.00 0.0 48.8 0.0
11/08/2018 15:00 0.00 54.0 14.5 29.50 3.75 16.25 0.00 0.0 55.8 0.0
11/08/2018 14:00 0.00 52.0 17.9 29.49 6.25 20.75 0.00 0.0 44.8 0.0
11/08/2018 13:00 0.00 49.0 25.0 29.48 4.00 16.25 0.00 0.0 60.0 0.0
11/08/2018 12:00 0.00 48.0 28.3 29.50 6.00 18.50 0.00 0.0 48.5 0.0
11/08/2018 11:00 0.00 47.0 30.9 29.49 4.75 18.00 0.00 0.0 50.3 0.0
11/08/2018 10:00 0.00 45.0 44.6 29.48 1.25 9.25 0.00 0.3 68.3 0.0
11/08/2018 09:00 0.00 43.0 49.9 29.47 2.00 12.75 0.00 0.3 65.0 0.0
11/08/2018 08:00 0.00 42.0 56.5 29.44 0.25 4.50 0.00 0.5 54.8 0.0
11/08/2018 07:00 0.00 42.0 51.1 29.43 1.25 9.75 0.00 0.3 50.8 0.0
11/08/2018 06:00 0.00 43.0 48.5 29.41 1.00 8.50 0.00 0.0 52.0 0.0
11/08/2018 05:00 0.00 42.0 49.0 29.40 0.00 1.25 0.00 0.0 33.0 0.0
11/08/2018 04:00 0.00 44.0 46.4 29.39 1.75 13.75 0.00 0.0 44.5 0.0
11/08/2018 03:00 0.00 44.0 43.2 29.36 7.50 22.00 0.00 0.0 53.3 0.0
11/08/2018 02:00 0.00 46.0 39.1 29.34 3.75 17.00 0.00 0.0 49.0 0.0
11/08/2018 01:00 0.00 47.0 42.7 29.30 4.50 16.25 0.00 0.0 52.0 0.0
11/08/2018 00:00 0.00 47.0 43.7 29.29 3.25 14.75 0.00 0.0 41.3 0.0
11/07/2018 23:00 0.00 49.0 39.6 29.27 4.00 15.50 0.00 0.3 46.0 0.0
11/07/2018 22:00 0.00 51.0 34.1 29.25 3.50 15.75 0.00 0.0 49.3 0.0
11/07/2018 21:00 0.00 51.0 31.3 29.25 2.25 14.00 0.00 0.5 54.8 0.0
11/07/2018 20:00 0.00 50.0 39.1 29.24 1.00 11.50 0.00 0.3 60.3 0.0
11/07/2018 19:00 0.00 51.0 31.7 29.23 0.50 8.75 0.00 0.8 52.8 0.0
11/07/2018 18:00 0.00 52.0 28.5 29.22 2.25 14.75 0.00 0.3 56.5 0.0
11/07/2018 17:00 0.00 54.0 28.1 29.20 2.50 15.50 0.00 0.3 54.3 0.0
11/07/2018 16:00 0.00 55.0 25.8 29.17 3.50 15.00 0.00 0.0 46.3 0.0
11/07/2018 15:00 0.00 59.0 18.6 29.16 4.50 16.00 0.00 0.0 51.5 0.0
11/07/2018 14:00 0.00 56.0 26.1 29.16 4.75 17.25 0.00 0.3 50.0 0.0
11/07/2018 13:00 0.00 56.0 26.9 29.16 5.00 18.75 0.00 0.0 55.5 0.0
11/07/2018 12:00 0.00 55.0 35.7 29.18 3.25 17.00 0.00 0.5 50.0 0.0
11/07/2018 11:00 0.00 53.0 43.7 29.17 2.00 12.75 0.00 0.3 45.3 0.0
11/07/2018 10:00 0.00 52.0 50.5 29.17 2.75 13.75 0.00 0.5 48.5 0.0
11/07/2018 09:00 0.00 50.0 53.7 29.17 2.25 13.25 0.00 0.0 45.0 0.0
11/07/2018 08:00 0.00 50.0 55.1 29.15 4.50 16.50 0.00 0.3 46.8 0.0
11/07/2018 07:00 0.00 50.0 57.3 29.13 4.50 16.75 0.00 0.8 56.0 0.0
11/07/2018 06:00 0.00 50.0 58.9 29.12 5.75 19.50 0.00 0.5 57.5 0.0
11/07/2018 05:00 0.01 50.0 68.0 29.09 3.00 15.00 0.00 0.8 55.3 0.0
11/07/2018 04:00 0.01 47.0 87.6 29.08 0.00 3.00 0.00 0.0 21.0 0.0
11/07/2018 03:00 0.00 47.0 87.5 29.07 0.00 0.00 0.00 0.0 0.0 0.0
11/07/2018 02:00 0.00 46.0 87.2 29.07 0.00 0.25 0.00 0.0 0.0 0.0
11/07/2018 01:00 0.00 46.0 86.9 29.06 0.00 0.00 0.00 0.0 0.0 0.0
11/07/2018 00:00 0.00 47.0 86.8 29.06 0.00 0.00 0.00 0.0 0.0 0.0
11/06/2018 23:00 0.00 48.0 87.0 29.07 0.00 0.00 0.00 0.0 0.0 0.0
11/06/2018 22:00 0.01 48.0 87.1 29.06 0.00 0.75 0.00 0.5 52.5 0.0
11/06/2018 21:00 0.03 48.0 87.2 29.06 0.00 2.75 0.00 0.3 28.0 0.0
11/06/2018 20:00 0.05 47.0 87.0 29.09 0.00 0.25 0.00 0.0 26.5 0.0
11/06/2018 19:00 0.06 47.0 86.8 29.10 0.00 2.25 0.00 0.8 19.0 0.0
11/06/2018 18:00 0.00 47.0 86.7 29.12 0.75 3.00 0.00 0.0 0.0 0.0
11/06/2018 17:00 0.02 48.0 86.6 29.16 0.00 1.00 0.00 0.0 0.0 0.0
11/06/2018 16:00 0.14 48.0 86.5 29.16 0.50 5.75 0.00 0.0 15.8 0.0
11/06/2018 15:00 0.11 47.0 86.2 29.17 0.25 5.50 0.00 0.0 0.0 0.0
11/06/2018 14:00 0.02 47.0 85.8 29.23 0.25 3.50 0.00 0.0 0.0 0.0
11/06/2018 13:00 0.00 47.0 85.2 29.29 0.00 0.00 0.00 0.0 0.0 0.0
11/06/2018 12:00 0.00 47.0 85.6 29.31 0.00 0.25 0.00 0.0 0.0 0.0
11/06/2018 11:00 0.00 46.0 85.8 29.34 0.00 1.00 0.00 0.0 0.0 0.0
11/06/2018 10:00 0.01 45.0 86.2 29.39 0.00 0.75 0.00 0.0 0.0 0.0
11/06/2018 09:00 0.00 43.0 86.2 29.42 0.00 1.00 0.00 0.0 0.0 0.0
11/06/2018 08:00 0.00 42.0 86.1 29.43 0.00 4.00 0.00 0.0 0.0 0.0
11/06/2018 07:00 0.01 42.0 85.8 29.44 0.00 3.00 0.00 0.0 0.0 0.0
11/06/2018 06:00 0.00 41.0 85.5 29.45 0.75 8.50 0.00 0.0 0.8 0.0
11/06/2018 05:00 0.00 40.0 85.4 29.47 1.00 9.25 0.00 0.0 0.0 0.0
11/06/2018 04:00 0.01 40.0 85.5 29.50 1.25 9.50 0.00 0.0 0.0 0.0
11/06/2018 03:00 0.06 39.0 85.5 29.55 0.25 4.50 0.00 0.0 0.0 0.0
11/06/2018 02:00 0.07 39.0 85.1 29.59 0.00 2.50 0.00 0.0 0.0 0.0
11/06/2018 01:00 0.03 38.0 84.6 29.61 0.25 6.25 0.00 0.0 0.0 0.0
11/06/2018 00:00 0.08 38.0 84.0 29.64 0.00 0.25 0.00 0.0 0.0 0.0
11/05/2018 23:00 0.03 38.0 82.2 29.67 0.25 6.50 0.00 0.0 0.0 0.0
11/05/2018 22:00 0.00 38.0 77.3 29.69 0.75 8.75 0.00 0.0 0.0 0.0
11/05/2018 21:00 0.00 38.0 76.2 29.70 0.00 5.00 0.00 0.0 0.0 0.0
11/05/2018 20:00 0.00 38.0 73.1 29.73 0.00 1.25 0.00 0.0 9.0 0.0
11/05/2018 19:00 0.00 38.0 70.5 29.73 1.00 9.00 0.00 0.0 0.0 0.0
11/05/2018 18:00 0.00 39.0 68.4 29.75 0.25 4.00 0.00 0.0 0.0 0.0
11/05/2018 17:00 0.00 39.0 66.3 29.76 0.50 6.75 0.00 0.0 0.0 0.0
11/05/2018 16:00 0.00 39.0 64.0 29.79 0.50 5.00 0.00 0.0 0.0 0.0
11/05/2018 15:00 0.00 39.0 63.5 29.82 0.00 0.25 0.00 0.0 0.0 0.0
11/05/2018 14:00 0.00 38.0 64.2 29.84 0.00 0.25 0.00 0.0 7.3 0.0
11/05/2018 13:00 0.00 37.0 63.6 29.84 1.75 10.50 0.00 0.0 0.0 0.0
11/05/2018 12:00 0.00 37.0 61.1 29.88 1.50 11.00 0.00 0.0 0.0 0.0
11/05/2018 11:00 -- 36.0 60.9 -- -- -- -- -- -- --
11/05/2018 10:00 0.00 35.0 61.5 29.93 0.33 4.67 0.00 0.0 0.0 0.0
11/05/2018 09:00 0.00 35.0 64.7 29.94 0.00 0.00 0.00 0.0 0.0 0.0
11/05/2018 08:00 0.00 34.0 67.7 29.91 0.00 2.25 0.00 0.0 0.0 0.0
11/05/2018 07:00 0.00 33.0 70.7 29.94 0.00 1.25 0.00 0.0 0.0 0.0
11/05/2018 06:00 0.00 32.0 77.7 29.95 0.00 0.00 0.00 0.0 0.0 0.0
11/05/2018 05:00 0.00 31.0 75.7 29.94 0.00 0.00 0.00 0.0 0.0 0.0
11/05/2018 04:00 0.00 33.0 72.8 29.93 0.00 0.00 0.00 0.0 0.0 0.0
11/05/2018 03:00 0.00 32.0 79.0 29.95 0.00 0.00 0.00 0.0 0.0 0.0
11/05/2018 02:00 0.00 32.0 77.9 29.93 0.00 0.00 0.00 0.0 0.0 0.0
11/05/2018 01:00 0.00 32.0 80.0 29.92 0.00 0.00 0.00 0.0 0.0 0.0
11/05/2018 00:00 0.00 33.0 79.0 29.93 0.00 0.00 0.00 0.0 0.0 0.0
11/04/2018 23:00 0.00 34.0 77.7 29.92 0.00 0.00 0.00 0.0 0.0 0.0
11/04/2018 22:00 0.00 35.0 74.5 29.91 0.00 0.00 0.00 0.0 0.0 0.0
11/04/2018 21:00 0.00 35.0 72.0 29.91 0.00 0.00 0.00 0.0 0.0 0.0
11/04/2018 20:00 0.00 37.0 60.8 29.89 0.00 0.00 0.00 0.0 0.0 0.0
11/04/2018 19:00 0.00 39.0 48.8 29.87 0.00 0.00 0.00 0.3 44.8 0.0
11/04/2018 18:00 0.00 41.0 47.4 29.85 0.00 2.25 0.00 0.0 61.5 0.0
11/04/2018 17:00 0.00 43.0 36.1 29.84 0.75 9.50 0.00 0.0 53.8 0.0
11/04/2018 16:00 0.00 44.0 28.1 29.83 1.50 13.25 0.00 0.0 32.0 0.0
11/04/2018 15:00 0.00 46.0 22.5 29.82 1.50 10.25 0.00 0.0 37.8 0.0
11/04/2018 14:00 0.00 45.0 23.4 29.82 2.75 15.25 0.00 0.0 24.0 0.0
11/04/2018 13:00 0.00 44.0 26.3 29.82 4.00 16.50 0.00 0.0 39.8 0.0
11/04/2018 12:00 0.00 43.0 32.9 29.82 3.75 16.00 0.00 0.0 34.0 0.0
11/04/2018 11:00 0.00 42.0 32.2 29.81 4.50 17.75 0.00 0.0 39.3 0.0
11/04/2018 10:00 0.00 40.0 39.6 29.80 5.75 18.75 0.00 0.0 43.0 0.0
11/04/2018 09:00 0.00 40.0 45.2 29.76 6.00 22.00 0.00 0.0 49.0 0.0
11/04/2018 08:00 0.00 39.0 46.3 29.72 5.75 19.75 0.00 0.0 51.5 0.0
11/04/2018 07:00 0.00 39.0 49.7 29.68 3.75 17.00 0.00 0.0 55.3 0.0
11/04/2018 06:00 0.00 40.0 50.6 29.64 5.25 20.25 0.00 0.0 43.3 0.0
11/04/2018 05:00 0.00 40.0 50.9 29.61 5.00 19.25 0.00 0.0 43.8 0.0
11/04/2018 04:00 0.00 40.0 49.8 29.58 4.50 16.75 0.00 0.0 54.0 0.0
11/04/2018 03:00 0.00 41.0 45.7 29.55 6.50 21.75 0.00 0.0 57.8 0.0
11/04/2018 02:00 0.00 42.0 41.9 29.50 7.50 23.75 0.00 0.0 45.5 0.0
11/04/2018 01:00 0.00 43.0 45.4 29.42 9.50 25.50 0.00 0.0 57.8 0.0
11/04/2018 00:00 0.00 43.0 46.8 29.37 10.75 26.75 0.00 0.3 53.0 0.0
11/03/2018 23:00 0.00 43.0 46.3 29.32 12.00 30.25 0.00 0.3 70.8 0.0
11/03/2018 22:00 0.00 44.0 46.1 29.26 10.00 27.00 0.00 0.3 58.3 0.0
11/03/2018 21:00 0.00 44.0 50.9 29.20 11.25 31.25 0.00 0.0 53.3 0.0
11/03/2018 20:00 0.00 45.0 56.2 29.16 11.50 32.50 0.00 0.5 62.0 0.0
11/03/2018 19:00 0.00 45.0 60.0 29.07 11.00 28.50 0.00 0.3 58.3 0.0
11/03/2018 18:00 0.01 46.0 55.4 29.01 13.00 33.75 0.25 0.5 49.0 0.0
11/03/2018 17:00 0.02 47.0 63.7 28.93 12.00 32.25 0.00 0.3 50.3 0.0
11/03/2018 16:00 0.08 48.0 78.6 28.81 4.75 18.00 0.00 0.3 30.5 0.0
11/03/2018 15:00 -- -- -- -- -- -- -- -- -- --